createdAt,value
2023-01-22T00:09:10.652Z,0.40
2023-01-22T00:19:12.142Z,0.45
2023-01-22T00:29:14.722Z,0.50
2023-01-22T00:39:16.192Z,0.45
2023-01-22T00:49:17.724Z,0.60
2023-01-22T00:59:19.958Z,0.55
2023-01-22T01:09:21.634Z,0.75
2023-01-22T01:19:23.187Z,0.30
2023-01-22T01:29:25.521Z,0.60
2023-01-22T01:39:27.003Z,0.50
2023-01-22T01:49:32.900Z,0.60
2023-01-22T01:59:35.102Z,0.50
2023-01-22T02:09:36.848Z,0.70
2023-01-22T02:19:39.792Z,0.70
2023-01-22T02:29:41.818Z,0.43
2023-01-22T02:39:45.554Z,1.02
2023-01-22T02:49:47.376Z,0.50
2023-01-22T02:59:50.997Z,0.43
2023-01-22T03:09:53.894Z,0.50
2023-01-22T03:20:14.222Z,0.40
2023-01-22T03:30:16.520Z,0.50
2023-01-22T03:40:18.873Z,0.38
2023-01-22T03:50:21.208Z,0.40
2023-01-22T04:00:23.025Z,0.40
2023-01-22T04:10:25.541Z,0.50
2023-01-22T04:20:27.696Z,0.70
2023-01-22T04:30:34.545Z,0.65
2023-01-22T04:40:54.662Z,0.30
2023-01-22T04:50:57.212Z,0.30
2023-01-22T05:01:01.960Z,0.37
2023-01-22T05:11:03.910Z,0.20
2023-01-22T05:21:31.758Z,0.52
2023-01-22T05:31:33.866Z,0.30
2023-01-22T05:41:37.330Z,0.75
2023-01-22T05:51:38.938Z,0.30
2023-01-22T06:01:41.036Z,0.20
2023-01-22T06:11:43.783Z,1.02
2023-01-22T06:21:45.644Z,0.45
2023-01-22T06:31:47.796Z,0.40
2023-01-22T06:41:52.781Z,0.30
2023-01-22T06:51:54.404Z,0.20
2023-01-22T07:01:56.144Z,0.28
2023-01-22T07:12:00.317Z,0.40
2023-01-22T07:22:01.778Z,0.20
2023-01-22T07:32:03.285Z,0.40
2023-01-22T07:42:04.840Z,0.30
2023-01-22T07:52:06.347Z,0.28
2023-01-22T08:02:12.027Z,0.30
2023-01-22T08:12:13.586Z,0.20
2023-01-22T08:22:15.063Z,0.40
2023-01-22T08:32:17.098Z,0.75
2023-01-22T08:42:18.714Z,0.38
2023-01-22T08:52:20.266Z,0.20
2023-01-22T09:02:21.819Z,0.20
2023-01-22T09:12:23.368Z,0.20
2023-01-22T09:22:25.307Z,0.60
2023-01-22T09:32:27.040Z,0.40
2023-01-22T09:42:37.205Z,0.30
2023-01-22T09:52:39.445Z,0.20
2023-01-22T10:02:45.361Z,0.22
2023-01-22T10:12:53.967Z,0.35
2023-01-22T10:22:56.430Z,2.42
2023-01-22T10:33:06.158Z,4.93
2023-01-22T10:43:15.603Z,3.45
2023-01-22T10:53:20.811Z,3.28
2023-01-22T11:14:05.531Z,1.70
2023-01-22T11:24:14.219Z,2.03
2023-01-22T11:35:08.374Z,0.75
2023-01-22T11:45:52.579Z,1.25
2023-01-22T11:56:00.611Z,2.85
2023-01-22T12:06:12.835Z,1.27
2023-01-22T12:16:20.825Z,1.73
2023-01-22T12:26:28.972Z,2.03
2023-01-22T12:36:32.599Z,1.55
2023-01-22T12:46:54.477Z,1.25
2023-01-22T12:57:33.027Z,1.08
2023-01-22T13:07:37.284Z,1.08
2023-01-22T13:17:40.230Z,0.40
2023-01-22T13:27:46.862Z,1.45
2023-01-22T13:37:50.919Z,0.30
2023-01-22T13:47:58.085Z,0.55
2023-01-22T13:58:04.179Z,0.45
2023-01-22T14:08:08.448Z,0.63
2023-01-22T14:18:18.022Z,0.82
2023-01-22T14:28:21.507Z,0.98
2023-01-22T14:38:23.902Z,0.43
2023-01-22T14:48:25.365Z,0.73
2023-01-22T14:58:26.837Z,1.17
2023-01-22T15:08:28.335Z,0.60
2023-01-22T15:18:29.880Z,0.40
2023-01-22T15:28:31.761Z,0.40
2023-01-22T15:38:33.255Z,0.43
2023-01-22T15:48:36.649Z,0.30
2023-01-22T15:58:39.387Z,0.83
2023-01-22T16:08:42.031Z,0.30
2023-01-22T16:18:43.690Z,0.57
2023-01-22T16:28:46.451Z,0.95
2023-01-22T16:38:48.483Z,0.93
2023-01-22T16:48:55.892Z,0.30
2023-01-22T16:58:57.395Z,0.85
2023-01-22T17:08:59.926Z,0.25
2023-01-22T17:19:03.064Z,0.70
2023-01-22T17:29:04.880Z,0.40
2023-01-22T17:39:07.680Z,0.75
2023-01-22T17:49:11.105Z,0.50
2023-01-22T17:59:12.633Z,0.77
2023-01-22T18:09:14.348Z,0.73
2023-01-22T18:19:18.478Z,0.30
2023-01-22T18:29:20.107Z,0.50
2023-01-22T18:39:22.177Z,0.40
2023-01-22T18:49:24.213Z,0.30
2023-01-22T18:59:25.864Z,0.93
2023-01-22T19:09:27.616Z,0.40
2023-01-22T19:19:29.218Z,0.45
2023-01-22T19:29:30.674Z,0.40
2023-01-22T19:39:33.307Z,0.60
2023-01-22T19:49:34.909Z,0.65
2023-01-22T19:59:36.373Z,0.95
2023-01-22T20:09:38.005Z,0.50
2023-01-22T20:19:39.872Z,0.30
2023-01-22T20:29:41.559Z,0.40
2023-01-22T20:39:43.114Z,0.82
2023-01-22T20:49:44.856Z,0.30
2023-01-22T20:59:46.399Z,0.85
2023-01-22T21:09:49.399Z,0.57
2023-01-22T21:19:51.614Z,1.15
2023-01-22T21:29:55.121Z,0.63
2023-01-22T21:39:56.671Z,0.40
2023-01-22T21:49:58.322Z,0.70
2023-01-22T21:59:59.782Z,0.47
2023-01-22T22:10:01.305Z,0.43
2023-01-22T22:20:05.002Z,0.52
2023-01-22T22:30:07.120Z,0.90
2023-01-22T22:40:10.903Z,0.30
2023-01-22T22:50:12.428Z,0.75
2023-01-22T23:00:14.499Z,0.35
2023-01-22T23:10:28.920Z,0.60
2023-01-22T23:20:30.630Z,0.30
2023-01-22T23:30:32.188Z,0.30
2023-01-22T23:40:34.126Z,0.22
2023-01-22T23:50:35.602Z,0.47
